Time,TemperatureF,DewpointF,PressureIn,WindDirection,WindDirectionDegrees,WindSpeedMPH,WindSpeedGustMPH,Humidity,HourlyPrecipIn,Conditions,Clouds,dailyrainin,SolarRadiationWatts/m^2,SoftwareType,DateUTC
2013-02-28 00:02:00,37.0,36.0,-100.00,NE,52,7.0,16.0,97,0.23,,,1.38,0.000000,,2013-02-28 05:02:00,
2013-02-28 00:11:00,37.0,36.0,-100.00,NE,52,7.0,16.0,97,0.23,,,1.38,0.000000,,2013-02-28 05:11:00,
2013-02-28 00:22:00,37.0,36.0,-100.00,NE,52,7.0,16.0,97,0.23,,,1.38,0.000000,,2013-02-28 05:22:00,
2013-02-28 00:52:00,36.0,35.0,-100.00,North,355,5.0,16.0,97,0.13,,,1.51,0.000000,,2013-02-28 05:52:00,
2013-02-28 01:02:00,36.0,35.0,-100.00,North,355,5.0,16.0,97,0.13,,,1.51,0.000000,,2013-02-28 06:02:00,
2013-02-28 01:11:00,36.0,35.0,-100.00,North,355,5.0,16.0,97,0.13,,,1.51,0.000000,,2013-02-28 06:11:00,
2013-02-28 01:22:00,36.0,35.0,-100.00,North,355,5.0,16.0,97,0.13,,,1.51,0.000000,,2013-02-28 06:22:00,
2013-02-28 01:52:00,34.0,33.0,-100.00,NNW,342,7.0,16.0,95,0.02,,,1.53,0.000000,,2013-02-28 06:52:00,
2013-02-28 02:01:00,34.0,33.0,-100.00,NNW,342,7.0,16.0,95,0.02,,,1.53,0.000000,,2013-02-28 07:01:00,
2013-02-28 02:11:00,34.0,33.0,-100.00,NNW,342,7.0,16.0,95,0.02,,,1.53,0.000000,,2013-02-28 07:11:00,
2013-02-28 02:22:00,34.0,33.0,-100.00,NNW,342,7.0,16.0,95,0.02,,,1.53,0.000000,,2013-02-28 07:22:00,
2013-02-28 02:52:00,33.0,32.0,-100.00,NNW,330,7.0,15.0,95,0.01,,,1.54,0.000000,,2013-02-28 07:52:00,
2013-02-28 03:01:00,33.0,32.0,-100.00,NNW,330,7.0,15.0,95,0.01,,,1.54,0.000000,,2013-02-28 08:01:00,
2013-02-28 03:11:00,33.0,32.0,-100.00,NNW,330,7.0,15.0,95,0.01,,,1.54,0.000000,,2013-02-28 08:11:00,
2013-02-28 03:22:00,33.0,32.0,-100.00,NNW,330,7.0,15.0,95,0.01,,,1.54,0.000000,,2013-02-28 08:22:00,
2013-02-28 03:53:00,33.0,31.0,-100.00,NW,320,4.0,130.0,94,0.00,,,1.54,0.000000,,2013-02-28 08:53:00,
2013-02-28 04:04:00,33.0,31.0,-100.00,NW,320,4.0,130.0,94,0.00,,,1.54,0.000000,,2013-02-28 09:04:00,
2013-02-28 04:12:00,33.0,31.0,-100.00,NW,320,4.0,130.0,94,0.00,,,1.54,0.000000,,2013-02-28 09:12:00,
2013-02-28 04:22:00,33.0,31.0,-100.00,NW,320,4.0,130.0,94,0.00,,,1.54,0.000000,,2013-02-28 09:22:00,
2013-02-28 04:53:00,33.0,31.0,-100.00,WNW,301,4.0,14.0,94,0.01,,,1.55,0.000000,,2013-02-28 09:53:00,
2013-02-28 05:02:00,33.0,31.0,-100.00,WNW,301,4.0,14.0,94,0.01,,,1.55,0.000000,,2013-02-28 10:02:00,
2013-02-28 05:12:00,33.0,31.0,-100.00,WNW,301,4.0,14.0,94,0.01,,,1.55,0.000000,,2013-02-28 10:12:00,
2013-02-28 05:22:00,33.0,31.0,-100.00,WNW,301,4.0,14.0,94,0.01,,,1.55,0.000000,,2013-02-28 10:22:00,
2013-02-28 05:52:00,33.0,32.0,-100.00,WNW,290,2.0,10.0,95,0.00,,,1.55,0.000000,,2013-02-28 10:52:00,
2013-02-28 06:02:00,33.0,32.0,-100.00,WNW,290,2.0,10.0,95,0.00,,,1.55,0.000000,,2013-02-28 11:02:00,
2013-02-28 06:11:00,33.0,32.0,-100.00,WNW,290,2.0,10.0,95,0.00,,,1.55,0.000000,,2013-02-28 11:11:00,
2013-02-28 06:22:00,33.0,32.0,-100.00,WNW,290,2.0,10.0,95,0.00,,,1.55,0.000000,,2013-02-28 11:22:00,
2013-02-28 06:53:00,33.0,32.0,-100.00,WNW,294,3.0,107.0,95,0.00,,,1.53,1.000000,,2013-02-28 11:53:00,
2013-02-28 07:02:00,33.0,32.0,-100.00,WNW,294,3.0,107.0,95,0.00,,,1.53,1.000000,,2013-02-28 12:02:00,
2013-02-28 07:12:00,33.0,32.0,-100.00,WNW,294,3.0,107.0,95,0.00,,,1.53,1.000000,,2013-02-28 12:12:00,
2013-02-28 07:22:00,33.0,32.0,-100.00,WNW,294,3.0,107.0,95,0.00,,,1.53,1.000000,,2013-02-28 12:22:00,
2013-02-28 07:53:00,34.0,32.0,-100.00,West,274,3.0,8.0,92,0.00,,,1.52,36.000000,,2013-02-28 12:53:00,
2013-02-28 08:02:00,34.0,32.0,-100.00,West,274,3.0,8.0,92,0.00,,,1.52,36.000000,,2013-02-28 13:02:00,
2013-02-28 08:12:00,34.0,32.0,-100.00,West,274,3.0,8.0,92,0.00,,,1.52,36.000000,,2013-02-28 13:12:00,
2013-02-28 08:22:00,34.0,32.0,-100.00,West,274,3.0,8.0,92,0.00,,,1.52,36.000000,,2013-02-28 13:22:00,
2013-02-28 08:52:00,38.0,33.0,-100.00,West,270,3.0,-999.0,83,0.01,,,1.53,146.000000,,2013-02-28 13:52:00,
2013-02-28 09:02:00,38.0,33.0,-100.00,West,270,3.0,-999.0,83,0.01,,,1.53,146.000000,,2013-02-28 14:02:00,
2013-02-28 09:12:00,38.0,33.0,-100.00,West,270,3.0,-999.0,83,0.01,,,1.53,146.000000,,2013-02-28 14:12:00,
2013-02-28 09:22:00,38.0,33.0,-100.00,West,270,3.0,-999.0,83,0.01,,,1.53,146.000000,,2013-02-28 14:22:00,
2013-02-28 09:52:00,41.0,34.0,-100.00,West,261,1.0,7.0,77,0.01,,,1.54,213.000000,,2013-02-28 14:52:00,
2013-02-28 10:02:00,41.0,34.0,-100.00,West,261,1.0,7.0,77,0.01,,,1.54,213.000000,,2013-02-28 15:02:00,
2013-02-28 10:11:00,41.0,34.0,-100.00,West,261,1.0,7.0,77,0.01,,,1.54,213.000000,,2013-02-28 15:11:00,
2013-02-28 10:22:00,41.0,34.0,-100.00,West,261,1.0,7.0,77,0.01,,,1.54,213.000000,,2013-02-28 15:22:00,
2013-02-28 10:52:00,42.0,34.0,-100.00,WSW,256,1.0,6.0,74,0.00,,,1.54,224.000000,,2013-02-28 15:52:00,
2013-02-28 11:02:00,42.0,34.0,-100.00,WSW,256,1.0,6.0,74,0.00,,,1.54,224.000000,,2013-02-28 16:02:00,
2013-02-28 11:12:00,42.0,34.0,-100.00,WSW,256,1.0,6.0,74,0.00,,,1.54,224.000000,,2013-02-28 16:12:00,
2013-02-28 11:22:00,42.0,34.0,-100.00,WSW,256,1.0,6.0,74,0.00,,,1.54,224.000000,,2013-02-28 16:22:00,
2013-02-28 11:53:00,44.0,34.0,-100.00,WSW,257,3.0,6.0,69,0.00,,,1.54,305.000000,,2013-02-28 16:53:00,
2013-02-28 12:02:00,44.0,34.0,-100.00,WSW,257,3.0,6.0,69,0.00,,,1.54,305.000000,,2013-02-28 17:02:00,
2013-02-28 12:12:00,44.0,34.0,-100.00,WSW,257,3.0,6.0,69,0.00,,,1.54,305.000000,,2013-02-28 17:12:00,
2013-02-28 12:22:00,44.0,34.0,-100.00,WSW,257,3.0,6.0,69,0.00,,,1.54,305.000000,,2013-02-28 17:22:00,
2013-02-28 12:53:00,45.0,34.0,-100.00,WNW,284,5.0,11.0,65,0.00,,,1.51,397.000000,,2013-02-28 17:53:00,
2013-02-28 13:02:00,45.0,34.0,-100.00,WNW,284,5.0,11.0,65,0.00,,,1.51,397.000000,,2013-02-28 18:02:00,
2013-02-28 13:12:00,45.0,34.0,-100.00,WNW,284,5.0,11.0,65,0.00,,,1.51,397.000000,,2013-02-28 18:12:00,
2013-02-28 13:22:00,45.0,34.0,-100.00,WNW,284,5.0,11.0,65,0.00,,,1.51,397.000000,,2013-02-28 18:22:00,
2013-02-28 13:52:00,45.0,34.0,-100.00,WNW,290,5.0,12.0,64,0.00,,,1.40,390.000000,,2013-02-28 18:52:00,
2013-02-28 14:02:00,45.0,34.0,-100.00,WNW,290,5.0,12.0,64,0.00,,,1.40,390.000000,,2013-02-28 19:02:00,
2013-02-28 14:12:00,45.0,34.0,-100.00,WNW,290,5.0,12.0,64,0.00,,,1.40,390.000000,,2013-02-28 19:12:00,
2013-02-28 14:22:00,45.0,34.0,-100.00,WNW,290,5.0,12.0,64,0.00,,,1.40,390.000000,,2013-02-28 19:22:00,
2013-02-28 14:52:00,44.0,34.0,-100.00,WNW,293,3.0,11.0,68,0.00,,,1.26,225.000000,,2013-02-28 19:52:00,
2013-02-28 15:01:00,44.0,34.0,-100.00,WNW,293,3.0,11.0,68,0.00,,,1.26,225.000000,,2013-02-28 20:01:00,
2013-02-28 15:12:00,44.0,34.0,-100.00,WNW,293,3.0,11.0,68,0.00,,,1.26,225.000000,,2013-02-28 20:12:00,
2013-02-28 15:22:00,44.0,34.0,-100.00,WNW,293,3.0,11.0,68,0.00,,,1.26,225.000000,,2013-02-28 20:22:00,
2013-02-28 15:52:00,46.0,35.0,-100.00,NNW,338,2.0,6.0,65,0.00,,,1.11,176.000000,,2013-02-28 20:52:00,
2013-02-28 16:02:00,46.0,35.0,-100.00,NNW,338,2.0,6.0,65,0.00,,,1.11,176.000000,,2013-02-28 21:02:00,
2013-02-28 16:11:00,46.0,35.0,-100.00,NNW,338,2.0,6.0,65,0.00,,,1.11,176.000000,,2013-02-28 21:11:00,
2013-02-28 16:22:00,46.0,35.0,-100.00,NNW,338,2.0,6.0,65,0.00,,,1.11,176.000000,,2013-02-28 21:22:00,
2013-02-28 16:52:00,42.0,35.0,-100.00,North,8,4.0,9.0,75,0.00,,,0.99,84.000000,,2013-02-28 21:52:00,
2013-02-28 17:02:00,42.0,35.0,-100.00,North,8,4.0,9.0,75,0.00,,,0.99,84.000000,,2013-02-28 22:02:00,
2013-02-28 17:11:00,42.0,35.0,-100.00,North,8,4.0,9.0,75,0.00,,,0.99,84.000000,,2013-02-28 22:11:00,
2013-02-28 17:22:00,42.0,35.0,-100.00,North,8,4.0,9.0,75,0.00,,,0.99,84.000000,,2013-02-28 22:22:00,
2013-02-28 17:52:00,40.0,35.0,-100.00,NNW,334,2.0,9.0,81,0.00,,,0.91,29.000000,,2013-02-28 22:52:00,
2013-02-28 18:02:00,40.0,35.0,-100.00,NNW,334,2.0,9.0,81,0.00,,,0.91,29.000000,,2013-02-28 23:02:00,
2013-02-28 18:11:00,40.0,35.0,-100.00,NNW,334,2.0,9.0,81,0.00,,,0.91,29.000000,,2013-02-28 23:11:00,
2013-02-28 18:22:00,40.0,35.0,-100.00,NNW,334,2.0,9.0,81,0.00,,,0.91,29.000000,,2013-02-28 23:22:00,
2013-02-28 18:53:00,39.0,36.0,-100.00,NNW,327,1.0,53.0,90,0.00,,,0.88,1.000000,,2013-02-28 23:53:00,
2013-02-28 19:02:00,39.0,36.0,-100.00,NNW,327,1.0,53.0,90,0.00,,,0.88,1.000000,,2013-03-01 00:02:00,
2013-02-28 19:11:00,39.0,36.0,-100.00,NNW,327,1.0,53.0,90,0.00,,,0.88,1.000000,,2013-03-01 00:11:00,
2013-02-28 19:22:00,39.0,36.0,-100.00,NNW,327,1.0,53.0,90,0.00,,,0.88,1.000000,,2013-03-01 00:22:00,
2013-02-28 19:52:00,37.0,35.0,-100.00,North,6,4.0,11.0,92,0.00,,,0.83,0.000000,,2013-03-01 00:52:00,
2013-02-28 20:01:00,37.0,35.0,-100.00,North,6,4.0,11.0,92,0.00,,,0.83,0.000000,,2013-03-01 01:01:00,
2013-02-28 20:11:00,37.0,35.0,-100.00,North,6,4.0,11.0,92,0.00,,,0.83,0.000000,,2013-03-01 01:11:00,
2013-02-28 20:21:00,37.0,35.0,-100.00,North,6,4.0,11.0,92,0.00,,,0.83,0.000000,,2013-03-01 01:21:00,
2013-02-28 20:52:00,36.0,34.0,-100.00,North,3,4.0,11.0,92,0.00,,,0.75,0.000000,,2013-03-01 01:52:00,
2013-02-28 21:01:00,36.0,34.0,-100.00,North,3,4.0,11.0,92,0.00,,,0.75,0.000000,,2013-03-01 02:01:00,
2013-02-28 21:11:00,36.0,34.0,-100.00,North,3,4.0,11.0,92,0.00,,,0.75,0.000000,,2013-03-01 02:11:00,
2013-02-28 21:21:00,36.0,34.0,-100.00,North,3,4.0,11.0,92,0.00,,,0.75,0.000000,,2013-03-01 02:21:00,
2013-02-28 21:52:00,36.0,33.0,-100.00,North,1,4.0,12.0,88,0.00,,,0.64,0.000000,,2013-03-01 02:52:00,
2013-02-28 22:02:00,36.0,33.0,-100.00,North,1,4.0,12.0,88,0.00,,,0.64,0.000000,,2013-03-01 03:02:00,
2013-02-28 22:12:00,36.0,33.0,-100.00,North,1,4.0,12.0,88,0.00,,,0.64,0.000000,,2013-03-01 03:12:00,
2013-02-28 22:22:00,36.0,33.0,-100.00,North,1,4.0,12.0,88,0.00,,,0.64,0.000000,,2013-03-01 03:22:00,
2013-02-28 22:52:00,35.0,32.0,-100.00,North,360,4.0,13.0,87,0.00,,,0.42,0.000000,,2013-03-01 03:52:00,
2013-02-28 23:02:00,35.0,32.0,-100.00,North,360,4.0,13.0,87,0.00,,,0.42,0.000000,,2013-03-01 04:02:00,
2013-02-28 23:12:00,35.0,32.0,-100.00,North,360,4.0,13.0,87,0.00,,,0.42,0.000000,,2013-03-01 04:12:00,
2013-02-28 23:22:00,35.0,32.0,-100.00,North,360,4.0,13.0,87,0.00,,,0.42,0.000000,,2013-03-01 04:22:00,
2013-02-28 23:52:00,35.0,32.0,-100.00,North,357,5.0,10.0,87,0.00,,,0.19,0.000000,,2013-03-01 04:52:00,